Time;durP1;ratioP1;P1;durP2;ratioP2;P2;SDS_P1;SDS_P2;PMS_P1;PMS_P2;Temp;Humidity;BMP_temperature;BMP_pressure;BME280_temperature;BME280_humidity;BME280_pressure;Samples;Min_cycle;Max_cycle;Signal;HPM_P1;HPM_P2
2021/03/31 00:02:08;;;;;;;2.80;1.67;;;;;;;;;;5131551;27;20030;-67
2021/03/31 00:04:34;;;;;;;3.60;1.77;;;;;;;;;;5132265;27;20455;-68
2021/03/31 00:07:01;;;;;;;7.22;2.53;;;;;;;;;;5131422;27;20458;-67
2021/03/31 00:09:27;;;;;;;4.03;2.85;;;;;;;;;;5132034;27;20581;-67
2021/03/31 00:11:53;;;;;;;9.88;1.92;;;;;;;;;;5131973;27;20034;-68
2021/03/31 00:14:19;;;;;;;4.97;2.28;;;;;;;;;;5131802;27;20031;-67
2021/03/31 00:16:45;;;;;;;2.55;1.65;;;;;;;;;;5132194;27;20076;-67
2021/03/31 00:19:11;;;;;;;2.20;1.65;;;;;;;;;;5131686;27;20027;-67
2021/03/31 00:21:37;;;;;;;5.20;3.58;;;;;;;;;;5131844;27;20031;-67
2021/03/31 00:24:03;;;;;;;2.47;1.70;;;;;;;;;;5131685;27;20027;-68
2021/03/31 00:26:30;;;;;;;5.78;2.38;;;;;;;;;;5131871;27;20031;-67
2021/03/31 00:28:56;;;;;;;4.38;2.22;;;;;;;;;;5131308;27;20545;-67
2021/03/31 00:31:22;;;;;;;3.70;1.80;;;;;;;;;;5130440;27;20374;-66
2021/03/31 00:33:48;;;;;;;3.58;1.95;;;;;;;;;;5132089;27;20031;-69
2021/03/31 00:36:14;;;;;;;4.80;2.30;;;;;;;;;;5131163;27;20112;-67
2021/03/31 00:38:40;;;;;;;4.18;2.17;;;;;;;;;;5131637;27;20023;-67
2021/03/31 00:41:06;;;;;;;4.00;2.28;;;;;;;;;;5130644;27;20522;-67
2021/03/31 00:43:32;;;;;;;3.00;2.67;;;;;;;;;;5131703;27;20031;-67
2021/03/31 00:45:58;;;;;;;2.83;1.95;;;;;;;;;;5131213;27;20019;-67
2021/03/31 00:48:24;;;;;;;2.70;2.00;;;;;;;;;;5123935;27;20441;-67
2021/03/31 00:50:59;;;;;;;3.47;1.98;;;;;;;;;;5131418;27;20477;-67
2021/03/31 00:53:27;;;;;;;5.13;2.13;;;;;;;;;;5131397;27;20035;-67
2021/03/31 00:55:53;;;;;;;5.50;2.50;;;;;;;;;;5131423;27;20027;-67
2021/03/31 00:58:20;;;;;;;2.67;2.03;;;;;;;;;;5131224;27;20076;-67
2021/03/31 01:00:46;;;;;;;4.65;2.70;;;;;;;;;;5131044;27;20062;-67
2021/03/31 01:03:12;;;;;;;4.85;2.40;;;;;;;;;;5130592;27;20117;-67
2021/03/31 01:05:39;;;;;;;4.25;2.97;;;;;;;;;;5130947;27;20023;-67
2021/03/31 01:08:05;;;;;;;5.63;1.58;;;;;;;;;;5130812;27;20466;-67
2021/03/31 01:10:36;;;;;;;2.53;2.28;;;;;;;;;;5130959;27;20130;-67
2021/03/31 01:13:02;;;;;;;4.20;2.33;;;;;;;;;;5130291;28;20027;-67
2021/03/31 01:15:46;;;;;;;5.18;2.38;;;;;;;;;;5130892;27;20080;-67
2021/03/31 01:18:12;;;;;;;3.50;2.58;;;;;;;;;;5130684;27;20071;-67
2021/03/31 01:20:55;;;;;;;10.02;3.13;;;;;;;;;;5131065;27;20038;-67
2021/03/31 01:23:40;;;;;;;4.88;1.90;;;;;;;;;;5131032;28;20060;-67
2021/03/31 01:26:08;;;;;;;3.33;1.85;;;;;;;;;;5130587;28;20035;-67
2021/03/31 01:28:53;;;;;;;4.53;1.98;;;;;;;;;;5131159;28;20031;-67
2021/03/31 01:31:39;;;;;;;6.68;2.05;;;;;;;;;;5130585;28;20066;-67
2021/03/31 01:34:20;;;;;;;3.95;1.67;;;;;;;;;;5089074;28;20035;-67
2021/03/31 01:36:47;;;;;;;5.80;2.22;;;;;;;;;;5130747;28;20075;-67
2021/03/31 01:39:13;;;;;;;6.93;2.13;;;;;;;;;;5130219;28;20064;-67
2021/03/31 01:41:40;;;;;;;3.90;2.42;;;;;;;;;;5130631;28;20027;-67
2021/03/31 01:44:09;;;;;;;3.75;2.88;;;;;;;;;;5133472;27;20530;-67
2021/03/31 01:46:37;;;;;;;9.63;3.35;;;;;;;;;;5133541;27;20027;-67
2021/03/31 01:49:03;;;;;;;5.00;2.20;;;;;;;;;;5129211;27;20075;-67
2021/03/31 01:51:30;;;;;;;10.30;2.97;;;;;;;;;;5134861;27;20102;-67
2021/03/31 01:53:57;;;;;;;2.17;1.70;;;;;;;;;;5134504;27;20405;-67
2021/03/31 01:56:25;;;;;;;12.60;2.83;;;;;;;;;;5134813;27;20469;-67
2021/03/31 01:58:52;;;;;;;3.80;2.55;;;;;;;;;;5135014;27;20038;-67
2021/03/31 02:01:18;;;;;;;5.80;2.33;;;;;;;;;;5133910;27;20495;-67
2021/03/31 02:03:46;;;;;;;6.13;2.53;;;;;;;;;;5134866;27;20049;-67
2021/03/31 02:06:13;;;;;;;4.63;2.15;;;;;;;;;;5133396;27;20027;-68
2021/03/31 02:08:40;;;;;;;5.13;1.98;;;;;;;;;;5134187;27;20513;-67
2021/03/31 02:11:07;;;;;;;8.18;3.10;;;;;;;;;;5133293;27;20122;-67
2021/03/31 02:13:33;;;;;;;8.13;2.10;;;;;;;;;;5134641;27;20055;-67
2021/03/31 02:16:00;;;;;;;9.38;2.83;;;;;;;;;;5133685;27;20462;-67
2021/03/31 02:18:29;;;;;;;5.28;2.28;;;;;;;;;;5134640;27;20020;-67
2021/03/31 02:20:55;;;;;;;8.27;2.20;;;;;;;;;;5133755;27;20088;-67
2021/03/31 02:23:22;;;;;;;2.53;2.17;;;;;;;;;;5134441;27;20439;-67
2021/03/31 02:25:49;;;;;;;6.97;3.05;;;;;;;;;;5134440;27;20409;-67
2021/03/31 02:28:15;;;;;;;2.50;2.13;;;;;;;;;;5134060;27;20035;-67
2021/03/31 02:30:41;;;;;;;4.93;2.22;;;;;;;;;;5134124;27;20053;-67
2021/03/31 02:33:08;;;;;;;4.80;2.45;;;;;;;;;;5133561;27;20434;-67
2021/03/31 02:35:35;;;;;;;10.90;3.20;;;;;;;;;;5133920;27;20112;-67
2021/03/31 02:38:02;;;;;;;5.78;2.03;;;;;;;;;;5133457;27;20028;-67
2021/03/31 02:40:29;;;;;;;4.03;2.47;;;;;;;;;;5133610;27;20051;-67
2021/03/31 02:42:57;;;;;;;6.18;1.60;;;;;;;;;;5133351;27;20039;-67
2021/03/31 02:45:24;;;;;;;7.13;2.53;;;;;;;;;;5133962;27;20038;-68
2021/03/31 02:47:51;;;;;;;8.00;3.58;;;;;;;;;;5133591;27;20034;-68
2021/03/31 02:50:19;;;;;;;4.38;2.60;;;;;;;;;;5132963;27;20035;-67
2021/03/31 02:52:46;;;;;;;4.28;2.25;;;;;;;;;;5133746;27;20473;-67
2021/03/31 02:55:13;;;;;;;3.97;1.85;;;;;;;;;;5132010;27;20497;-68
2021/03/31 02:57:39;;;;;;;2.78;2.20;;;;;;;;;;5133640;27;20027;-69
2021/03/31 03:00:07;;;;;;;3.75;2.53;;;;;;;;;;5114143;27;20046;-69
2021/03/31 03:02:33;;;;;;;3.30;2.10;;;;;;;;;;5133481;27;20363;-69
2021/03/31 03:05:01;;;;;;;2.17;1.95;;;;;;;;;;5132843;27;20034;-69
2021/03/31 03:07:27;;;;;;;2.97;2.00;;;;;;;;;;5133363;27;20034;-69
2021/03/31 03:09:54;;;;;;;5.03;2.92;;;;;;;;;;5132741;27;20150;-69
2021/03/31 03:12:21;;;;;;;5.80;2.50;;;;;;;;;;5132991;27;20027;-69
2021/03/31 03:14:51;;;;;;;3.95;2.50;;;;;;;;;;5133614;27;20043;-69
2021/03/31 03:17:18;;;;;;;5.40;2.40;;;;;;;;;;5133099;27;20039;-69
2021/03/31 03:19:44;;;;;;;5.82;2.60;;;;;;;;;;5133340;27;20051;-69
2021/03/31 03:22:10;;;;;;;2.75;2.08;;;;;;;;;;5132309;27;20035;-68
2021/03/31 03:24:37;;;;;;;5.18;2.88;;;;;;;;;;5133655;27;20027;-69
2021/03/31 03:27:03;;;;;;;6.57;2.72;;;;;;;;;;5132524;27;20030;-68
2021/03/31 03:29:29;;;;;;;5.00;2.15;;;;;;;;;;5133224;27;20023;-68
2021/03/31 03:31:55;;;;;;;6.88;2.65;;;;;;;;;;5132835;27;20030;-69
2021/03/31 03:34:22;;;;;;;7.90;2.80;;;;;;;;;;5133311;27;20104;-69
2021/03/31 03:36:48;;;;;;;5.32;2.28;;;;;;;;;;5132706;27;20035;-69
2021/03/31 03:39:14;;;;;;;5.32;2.53;;;;;;;;;;5132266;27;20054;-68
2021/03/31 03:41:40;;;;;;;6.78;2.72;;;;;;;;;;5132530;27;20103;-68
2021/03/31 03:44:07;;;;;;;9.05;2.78;;;;;;;;;;5132253;27;20035;-68
2021/03/31 03:46:34;;;;;;;2.40;2.15;;;;;;;;;;5132568;27;20106;-69
2021/03/31 03:49:01;;;;;;;2.83;2.38;;;;;;;;;;5132176;27;20035;-68
2021/03/31 03:51:27;;;;;;;3.42;2.15;;;;;;;;;;5132418;27;20095;-69
2021/03/31 03:53:54;;;;;;;5.07;2.63;;;;;;;;;;5132751;27;20030;-68
2021/03/31 03:56:20;;;;;;;10.68;3.45;;;;;;;;;;5132468;27;20127;-68
2021/03/31 03:58:46;;;;;;;6.32;2.50;;;;;;;;;;5132309;27;20081;-68
2021/03/31 04:01:12;;;;;;;8.50;3.10;;;;;;;;;;5131569;27;20031;-68
2021/03/31 04:03:39;;;;;;;5.18;3.65;;;;;;;;;;5132798;27;20035;-68
2021/03/31 04:06:06;;;;;;;12.05;3.78;;;;;;;;;;5131252;27;20026;-68
2021/03/31 04:08:32;;;;;;;5.55;3.22;;;;;;;;;;5132090;27;20023;-68
2021/03/31 04:10:58;;;;;;;4.78;2.50;;;;;;;;;;5131481;27;20023;-69
2021/03/31 04:13:25;;;;;;;7.38;2.63;;;;;;;;;;5132313;27;20155;-69
2021/03/31 04:15:54;;;;;;;5.10;3.15;;;;;;;;;;5132190;27;20031;-69
2021/03/31 04:18:21;;;;;;;5.97;2.67;;;;;;;;;;5131693;27;20037;-68
2021/03/31 04:20:51;;;;;;;7.10;2.60;;;;;;;;;;5132125;27;20432;-68
2021/03/31 04:23:17;;;;;;;5.43;2.75;;;;;;;;;;5131418;27;20031;-69
2021/03/31 04:25:43;;;;;;;3.47;2.28;;;;;;;;;;5132237;27;20084;-68
2021/03/31 04:28:11;;;;;;;3.55;2.13;;;;;;;;;;5131188;27;20568;-68
2021/03/31 04:30:39;;;;;;;4.30;1.98;;;;;;;;;;5131916;27;20076;-68
2021/03/31 04:33:05;;;;;;;3.65;2.38;;;;;;;;;;5131244;27;20034;-68
2021/03/31 04:35:32;;;;;;;6.40;2.70;;;;;;;;;;5131989;27;20031;-69
2021/03/31 04:38:08;;;;;;;8.50;3.10;;;;;;;;;;5130952;27;20083;-68
2021/03/31 04:40:42;;;;;;;4.28;2.55;;;;;;;;;;5131696;27;20023;-68
2021/03/31 04:43:09;;;;;;;3.70;2.25;;;;;;;;;;5131260;27;20023;-68
2021/03/31 04:45:35;;;;;;;6.05;2.72;;;;;;;;;;5132015;27;20027;-68
2021/03/31 04:48:01;;;;;;;3.45;2.40;;;;;;;;;;5116897;27;20028;-68
2021/03/31 04:50:27;;;;;;;8.93;2.67;;;;;;;;;;5110988;28;20081;-69
2021/03/31 04:52:53;;;;;;;7.05;3.85;;;;;;;;;;5110938;28;20035;-68
2021/03/31 04:55:19;;;;;;;9.63;2.53;;;;;;;;;;5110964;28;20530;-68
2021/03/31 04:57:45;;;;;;;5.72;3.85;;;;;;;;;;5111047;28;20032;-68
2021/03/31 05:00:11;;;;;;;4.63;2.22;;;;;;;;;;5123199;27;20528;-68
2021/03/31 05:02:37;;;;;;;4.10;2.38;;;;;;;;;;5131413;27;20027;-68
2021/03/31 05:05:03;;;;;;;4.32;2.70;;;;;;;;;;5130859;27;20038;-68
2021/03/31 05:07:29;;;;;;;4.68;2.30;;;;;;;;;;5130836;27;20047;-69
2021/03/31 05:09:56;;;;;;;8.55;3.13;;;;;;;;;;5130492;27;20076;-68
2021/03/31 05:12:24;;;;;;;7.53;3.13;;;;;;;;;;5130827;27;20023;-68
2021/03/31 05:14:50;;;;;;;3.63;1.92;;;;;;;;;;5131536;27;20027;-68
2021/03/31 05:17:16;;;;;;;6.15;2.22;;;;;;;;;;5129903;27;20046;-68
2021/03/31 05:19:42;;;;;;;8.52;4.15;;;;;;;;;;5130903;27;20065;-69
2021/03/31 05:22:08;;;;;;;8.63;2.78;;;;;;;;;;5112131;28;20415;-68
2021/03/31 05:24:34;;;;;;;4.60;1.88;;;;;;;;;;5131132;28;20019;-68
2021/03/31 05:27:00;;;;;;;6.78;2.30;;;;;;;;;;5130735;28;20031;-68
2021/03/31 05:29:26;;;;;;;5.20;3.15;;;;;;;;;;5131040;28;20064;-68
2021/03/31 05:31:52;;;;;;;4.88;2.67;;;;;;;;;;5130788;28;20039;-68
2021/03/31 05:34:18;;;;;;;4.75;2.85;;;;;;;;;;5131156;28;20093;-68
2021/03/31 05:36:44;;;;;;;5.45;3.03;;;;;;;;;;5130822;28;20565;-68
2021/03/31 05:39:10;;;;;;;4.45;2.47;;;;;;;;;;5130397;28;20118;-68
2021/03/31 05:41:37;;;;;;;3.97;2.50;;;;;;;;;;5130917;28;20028;-68
2021/03/31 05:44:03;;;;;;;4.57;2.63;;;;;;;;;;5126428;28;20046;-68
2021/03/31 05:46:30;;;;;;;7.15;2.85;;;;;;;;;;5112968;28;20401;-68
2021/03/31 05:48:56;;;;;;;6.00;2.97;;;;;;;;;;5108492;28;20019;-68
2021/03/31 05:51:22;;;;;;;9.30;4.28;;;;;;;;;;5116017;28;20020;-68
2021/03/31 05:53:48;;;;;;;10.38;3.97;;;;;;;;;;5103421;28;20375;-69
2021/03/31 05:56:15;;;;;;;14.52;6.00;;;;;;;;;;5108452;28;20044;-68
2021/03/31 05:58:41;;;;;;;8.50;3.78;;;;;;;;;;5114749;28;20054;-68
2021/03/31 06:01:08;;;;;;;8.05;4.28;;;;;;;;;;5129466;28;20034;-69
2021/03/31 06:03:34;;;;;;;9.45;4.03;;;;;;;;;;5117094;28;20051;-68
2021/03/31 06:06:00;;;;;;;10.25;3.88;;;;;;;;;;5105944;28;20020;-68
2021/03/31 06:08:26;;;;;;;14.65;4.97;;;;;;;;;;5102658;28;20478;-69
2021/03/31 06:11:02;;;;;;;11.82;4.25;;;;;;;;;;5107893;28;20057;-68
2021/03/31 06:13:48;;;;;;;14.57;5.47;;;;;;;;;;5107622;28;20055;-68
2021/03/31 06:16:27;;;;;;;12.15;4.88;;;;;;;;;;5107873;28;20541;-68
2021/03/31 06:18:53;;;;;;;13.75;4.57;;;;;;;;;;5109353;28;20525;-68
2021/03/31 06:21:20;;;;;;;17.95;5.35;;;;;;;;;;5107843;28;20426;-68
2021/03/31 06:26:18;;;;;;;16.25;4.85;;;;;;;;;;5085851;28;20047;-68
2021/03/31 06:28:46;;;;;;;15.30;6.10;;;;;;;;;;5096084;27;20027;-68
2021/03/31 06:31:13;;;;;;;12.20;7.13;;;;;;;;;;5104296;27;20164;-68
2021/03/31 06:33:41;;;;;;;12.23;4.43;;;;;;;;;;5107791;27;20043;-68
2021/03/31 06:36:08;;;;;;;11.23;4.07;;;;;;;;;;5110440;27;20131;-68
2021/03/31 06:38:35;;;;;;;24.08;6.90;;;;;;;;;;5110110;28;20192;-68
2021/03/31 06:41:12;;;;;;;15.52;5.13;;;;;;;;;;5107068;28;20038;-68
2021/03/31 06:43:48;;;;;;;12.80;5.13;;;;;;;;;;5111382;28;20034;-69
2021/03/31 06:46:26;;;;;;;24.33;5.03;;;;;;;;;;5109492;28;20347;-69
2021/03/31 06:48:53;;;;;;;13.80;5.40;;;;;;;;;;5110222;28;20482;-68
2021/03/31 06:51:29;;;;;;;14.50;4.78;;;;;;;;;;5109642;27;20027;-69
2021/03/31 06:53:55;;;;;;;15.68;5.95;;;;;;;;;;5099069;27;20039;-67
2021/03/31 06:56:29;;;;;;;17.67;5.22;;;;;;;;;;5104414;28;20055;-68
2021/03/31 06:58:56;;;;;;;18.15;6.80;;;;;;;;;;5104312;27;20798;-70
2021/03/31 07:01:26;;;;;;;16.17;5.22;;;;;;;;;;5107081;27;20043;-71
2021/03/31 07:03:53;;;;;;;16.65;5.57;;;;;;;;;;5113331;27;20385;-67
2021/03/31 07:06:19;;;;;;;20.60;6.50;;;;;;;;;;5106079;27;20028;-70
2021/03/31 07:08:46;;;;;;;21.95;7.03;;;;;;;;;;5111492;27;20385;-69
2021/03/31 07:11:14;;;;;;;17.88;5.35;;;;;;;;;;5109142;27;20521;-68
2021/03/31 07:13:40;;;;;;;27.00;5.22;;;;;;;;;;5106049;27;20203;-68
2021/03/31 07:16:06;;;;;;;16.83;6.82;;;;;;;;;;5107264;27;20028;-67
2021/03/31 07:18:34;;;;;;;19.88;6.35;;;;;;;;;;5112483;27;20045;-68
2021/03/31 07:21:00;;;;;;;16.58;5.72;;;;;;;;;;5112234;27;20512;-68
2021/03/31 07:23:27;;;;;;;15.05;4.80;;;;;;;;;;5110820;27;20019;-68
2021/03/31 07:25:54;;;;;;;11.73;5.53;;;;;;;;;;5106252;27;20074;-68
2021/03/31 07:28:30;;;;;;;15.65;6.65;;;;;;;;;;5106346;27;20430;-68
2021/03/31 07:30:57;;;;;;;19.25;5.43;;;;;;;;;;5094341;27;20096;-67
2021/03/31 07:33:27;;;;;;;15.50;5.97;;;;;;;;;;5090065;27;20051;-68
2021/03/31 07:35:53;;;;;;;14.18;4.88;;;;;;;;;;5093378;27;20119;-68
2021/03/31 07:38:20;;;;;;;15.43;5.32;;;;;;;;;;5095728;27;20039;-68
2021/03/31 07:40:48;;;;;;;12.55;4.88;;;;;;;;;;5091899;27;20175;-68
2021/03/31 07:43:16;;;;;;;14.45;5.40;;;;;;;;;;5094314;27;20040;-69
2021/03/31 07:45:48;;;;;;;19.13;7.10;;;;;;;;;;5092062;27;20039;-68
2021/03/31 07:48:15;;;;;;;31.05;7.60;;;;;;;;;;5094748;27;20031;-68
2021/03/31 07:50:41;;;;;;;19.00;7.93;;;;;;;;;;5093825;27;20078;-68
2021/03/31 07:53:08;;;;;;;19.73;6.68;;;;;;;;;;5093912;27;20035;-71
2021/03/31 07:55:35;;;;;;;19.92;7.15;;;;;;;;;;5097339;27;20042;-68
2021/03/31 07:58:16;;;;;;;18.13;6.20;;;;;;;;;;5094982;27;21277;-67
2021/03/31 08:00:54;;;;;;;24.42;7.22;;;;;;;;;;5086648;27;20047;-71
2021/03/31 08:03:20;;;;;;;17.10;5.63;;;;;;;;;;5105860;27;20035;-67
2021/03/31 08:06:06;;;;;;;18.08;6.30;;;;;;;;;;5107695;27;20031;-68
2021/03/31 08:08:36;;;;;;;31.25;7.38;;;;;;;;;;5108523;27;20038;-68
2021/03/31 08:11:02;;;;;;;16.10;5.72;;;;;;;;;;5107341;27;20043;-68
2021/03/31 08:13:30;;;;;;;19.05;5.25;;;;;;;;;;5110652;27;20096;-67
2021/03/31 08:15:56;;;;;;;11.38;4.68;;;;;;;;;;5108865;27;20519;-67
2021/03/31 08:18:23;;;;;;;10.00;5.32;;;;;;;;;;5106190;27;20027;-68
2021/03/31 08:20:49;;;;;;;13.60;5.07;;;;;;;;;;5104672;27;20115;-68
2021/03/31 08:23:35;;;;;;;20.02;6.15;;;;;;;;;;5095581;27;20125;-68
2021/03/31 08:26:44;;;;;;;18.52;5.63;;;;;;;;;;5106935;27;20035;-68
2021/03/31 08:29:30;;;;;;;13.32;5.93;;;;;;;;;;5053178;28;20041;-68
2021/03/31 08:31:57;;;;;;;21.80;6.90;;;;;;;;;;5064186;28;20034;-67
2021/03/31 08:34:24;;;;;;;14.57;6.93;;;;;;;;;;5107357;27;20038;-68
2021/03/31 08:36:50;;;;;;;16.08;6.28;;;;;;;;;;5129147;27;20047;-68
2021/03/31 08:39:16;;;;;;;33.55;8.52;;;;;;;;;;5129940;27;20033;-68
2021/03/31 08:41:44;;;;;;;24.95;5.63;;;;;;;;;;5124814;27;20078;-68
2021/03/31 08:44:21;;;;;;;16.65;6.53;;;;;;;;;;5126544;27;20809;-68
2021/03/31 08:46:48;;;;;;;20.00;6.28;;;;;;;;;;5123641;27;20143;-70
2021/03/31 08:49:21;;;;;;;20.05;6.20;;;;;;;;;;5131414;27;21024;-71
2021/03/31 08:51:52;;;;;;;16.92;6.00;;;;;;;;;;5127841;27;20531;-68
2021/03/31 08:54:18;;;;;;;14.20;6.43;;;;;;;;;;5126421;27;20119;-69
2021/03/31 08:56:48;;;;;;;13.50;4.50;;;;;;;;;;5125557;27;20069;-69
2021/03/31 08:59:15;;;;;;;15.18;4.10;;;;;;;;;;5124065;27;20691;-70
2021/03/31 09:01:42;;;;;;;12.80;5.00;;;;;;;;;;5104113;27;20117;-70
2021/03/31 09:04:17;;;;;;;18.25;5.45;;;;;;;;;;5106782;27;20076;-69
2021/03/31 09:06:43;;;;;;;10.38;4.43;;;;;;;;;;5107625;27;20118;-70
2021/03/31 09:09:09;;;;;;;11.07;4.72;;;;;;;;;;5106051;27;20069;-70
2021/03/31 09:11:36;;;;;;;17.25;4.50;;;;;;;;;;5102413;27;20084;-70
2021/03/31 09:14:17;;;;;;;11.82;4.03;;;;;;;;;;5111024;27;20426;-69
2021/03/31 09:17:09;;;;;;;14.43;4.20;;;;;;;;;;5109336;27;20040;-68
2021/03/31 09:19:39;;;;;;;17.83;5.50;;;;;;;;;;5098291;27;20069;-69
2021/03/31 09:22:09;;;;;;;13.63;3.60;;;;;;;;;;5107285;27;20036;-69
2021/03/31 09:24:38;;;;;;;7.43;3.75;;;;;;;;;;5105234;28;20123;-67
2021/03/31 09:27:08;;;;;;;14.60;3.65;;;;;;;;;;5105608;28;20262;-68
2021/03/31 09:29:36;;;;;;;19.13;5.05;;;;;;;;;;5103349;28;20419;-69
2021/03/31 09:32:04;;;;;;;13.70;4.03;;;;;;;;;;5112202;28;20541;-68
2021/03/31 09:34:30;;;;;;;13.07;3.95;;;;;;;;;;5108137;28;20026;-68
2021/03/31 09:37:01;;;;;;;13.07;3.97;;;;;;;;;;5114725;28;20035;-68
2021/03/31 09:39:42;;;;;;;11.23;4.70;;;;;;;;;;5109287;28;20029;-67
2021/03/31 09:42:09;;;;;;;11.00;3.90;;;;;;;;;;5109956;28;20027;-69
2021/03/31 09:44:37;;;;;;;11.65;4.53;;;;;;;;;;5110304;27;20054;-67
2021/03/31 09:47:03;;;;;;;20.65;5.88;;;;;;;;;;5114052;28;20031;-68
2021/03/31 09:49:29;;;;;;;14.65;5.30;;;;;;;;;;5112126;28;20110;-70
2021/03/31 09:51:55;;;;;;;7.00;4.00;;;;;;;;;;5112670;28;20032;-70
2021/03/31 09:54:25;;;;;;;12.60;5.40;;;;;;;;;;5111927;28;20129;-76
2021/03/31 09:56:51;;;;;;;16.88;4.35;;;;;;;;;;5111330;28;20118;-68
2021/03/31 09:59:18;;;;;;;14.75;4.75;;;;;;;;;;5114097;27;20565;-69
2021/03/31 10:01:44;;;;;;;11.00;3.60;;;;;;;;;;5108673;28;20079;-69
2021/03/31 10:04:10;;;;;;;7.50;3.65;;;;;;;;;;5112031;27;20061;-69
2021/03/31 10:06:36;;;;;;;9.65;3.30;;;;;;;;;;5114243;27;20027;-70
2021/03/31 10:09:13;;;;;;;10.60;4.25;;;;;;;;;;5114892;27;20511;-69
2021/03/31 10:11:39;;;;;;;9.70;3.30;;;;;;;;;;5118273;27;20031;-69
2021/03/31 10:14:06;;;;;;;14.85;4.70;;;;;;;;;;5111545;27;20035;-70
2021/03/31 10:16:33;;;;;;;7.43;3.28;;;;;;;;;;5111707;27;20059;-70
2021/03/31 10:19:00;;;;;;;11.13;3.30;;;;;;;;;;5110319;27;20526;-69
2021/03/31 10:21:30;;;;;;;9.13;3.40;;;;;;;;;;5105172;27;20427;-69
2021/03/31 10:23:56;;;;;;;7.30;3.63;;;;;;;;;;5106822;27;20028;-70
2021/03/31 10:26:26;;;;;;;8.95;3.13;;;;;;;;;;5107649;27;20483;-70
2021/03/31 10:28:57;;;;;;;8.02;3.38;;;;;;;;;;5117131;27;20039;-69
2021/03/31 10:31:27;;;;;;;7.57;3.20;;;;;;;;;;5115278;27;20607;-70
2021/03/31 10:33:54;;;;;;;8.23;4.07;;;;;;;;;;5107721;27;20464;-70
2021/03/31 10:36:36;;;;;;;13.55;4.22;;;;;;;;;;5115514;27;20070;-70
2021/03/31 10:49:51;;;;;;;15.57;5.80;;;;;;;;;;5110923;27;20106;-72
2021/03/31 10:54:46;;;;;;;14.40;5.95;;;;;;;;;;5110432;27;20417;-73
2021/03/31 10:57:13;;;;;;;25.70;6.53;;;;;;;;;;5105511;27;20422;-73
2021/03/31 10:59:42;;;;;;;25.10;6.50;;;;;;;;;;5112671;27;20048;-72
2021/03/31 11:02:09;;;;;;;19.45;7.07;;;;;;;;;;5105515;27;20028;-72
2021/03/31 11:04:35;;;;;;;18.27;6.25;;;;;;;;;;5106118;27;20054;-72
2021/03/31 11:07:02;;;;;;;19.88;7.70;;;;;;;;;;5105711;27;20028;-72
2021/03/31 11:09:28;;;;;;;30.35;8.48;;;;;;;;;;5111652;27;20465;-72
2021/03/31 11:11:55;;;;;;;21.75;8.68;;;;;;;;;;5116222;27;20035;-73
2021/03/31 11:14:21;;;;;;;28.25;8.27;;;;;;;;;;5117915;27;20118;-73
2021/03/31 11:17:00;;;;;;;34.22;7.95;;;;;;;;;;5115207;27;20069;-73
2021/03/31 11:27:40;;;;;;;21.52;8.27;;;;;;;;;;5117437;27;20054;-72
2021/03/31 11:30:10;;;;;;;25.77;8.35;;;;;;;;;;5115388;27;20033;-73
2021/03/31 11:32:37;;;;;;;21.42;7.32;;;;;;;;;;5110338;27;20023;-72
2021/03/31 11:35:04;;;;;;;29.95;7.20;;;;;;;;;;5103387;27;20039;-71
2021/03/31 11:37:30;;;;;;;22.80;8.43;;;;;;;;;;5107319;27;20032;-72
2021/03/31 11:39:57;;;;;;;22.38;6.97;;;;;;;;;;5105872;27;20030;-73
2021/03/31 11:42:23;;;;;;;24.65;7.90;;;;;;;;;;5110577;27;20047;-73
2021/03/31 11:44:49;;;;;;;27.85;8.45;;;;;;;;;;5108232;27;20027;-71
2021/03/31 11:47:15;;;;;;;14.10;6.35;;;;;;;;;;5113785;27;20040;-80
2021/03/31 11:49:41;;;;;;;29.30;7.40;;;;;;;;;;5097438;27;20035;-69
2021/03/31 11:52:08;;;;;;;30.15;9.18;;;;;;;;;;5107178;27;20028;-70
2021/03/31 11:54:34;;;;;;;30.95;8.23;;;;;;;;;;5110605;27;20027;-70
2021/03/31 11:57:01;;;;;;;28.67;9.65;;;;;;;;;;5112571;27;20076;-70
2021/03/31 11:59:27;;;;;;;45.03;10.38;;;;;;;;;;5112995;27;20130;-70
2021/03/31 12:01:53;;;;;;;25.15;8.32;;;;;;;;;;5127368;27;20058;-70
2021/03/31 12:04:19;;;;;;;31.08;9.68;;;;;;;;;;5126922;27;20158;-70
2021/03/31 12:06:46;;;;;;;30.40;10.77;;;;;;;;;;5130550;27;20797;-71
2021/03/31 12:09:12;;;;;;;30.75;9.45;;;;;;;;;;5133224;27;20096;-72
2021/03/31 12:11:39;;;;;;;28.42;8.15;;;;;;;;;;5134189;27;20019;-72
2021/03/31 12:14:05;;;;;;;21.80;6.38;;;;;;;;;;5138820;27;20053;-71
2021/03/31 12:16:31;;;;;;;19.75;7.72;;;;;;;;;;5136182;27;20084;-72
2021/03/31 12:18:58;;;;;;;26.48;7.22;;;;;;;;;;5129336;27;20464;-72
2021/03/31 12:21:24;;;;;;;32.13;8.27;;;;;;;;;;5142830;27;20026;-72
2021/03/31 12:23:50;;;;;;;29.38;8.25;;;;;;;;;;5133757;27;20038;-71
2021/03/31 12:26:17;;;;;;;27.67;8.07;;;;;;;;;;5135604;27;20101;-72
2021/03/31 12:28:53;;;;;;;24.55;8.15;;;;;;;;;;5133950;27;20436;-72
2021/03/31 12:31:19;;;;;;;22.50;6.47;;;;;;;;;;5127857;27;20043;-69
2021/03/31 12:33:45;;;;;;;28.40;8.40;;;;;;;;;;5132001;27;20027;-71
2021/03/31 12:36:11;;;;;;;31.38;7.85;;;;;;;;;;5122959;27;20098;-70
2021/03/31 12:38:38;;;;;;;36.05;8.20;;;;;;;;;;5128155;27;20046;-71
2021/03/31 12:41:04;;;;;;;32.80;8.98;;;;;;;;;;5130992;27;20035;-70
2021/03/31 12:43:31;;;;;;;29.45;9.10;;;;;;;;;;5125316;27;20170;-70
2021/03/31 12:45:57;;;;;;;29.67;8.98;;;;;;;;;;5129778;27;20019;-70
2021/03/31 12:48:24;;;;;;;20.55;7.28;;;;;;;;;;5130467;27;20594;-70
2021/03/31 12:50:57;;;;;;;21.70;8.18;;;;;;;;;;5132549;27;20058;-70
2021/03/31 12:53:28;;;;;;;27.02;8.65;;;;;;;;;;5128098;27;20499;-76
2021/03/31 12:55:56;;;;;;;31.83;6.65;;;;;;;;;;5127061;27;20126;-70
2021/03/31 12:58:23;;;;;;;21.33;8.25;;;;;;;;;;5130261;27;20065;-70
2021/03/31 13:00:52;;;;;;;25.58;10.07;;;;;;;;;;5126500;27;20085;-71
2021/03/31 13:03:18;;;;;;;25.38;7.20;;;;;;;;;;5132398;27;20058;-71
2021/03/31 13:05:45;;;;;;;29.95;9.52;;;;;;;;;;5135406;27;20038;-71
2021/03/31 13:08:15;;;;;;;26.42;11.93;;;;;;;;;;5128286;27;20027;-71
2021/03/31 13:10:42;;;;;;;43.30;29.33;;;;;;;;;;5129063;27;20024;-70
2021/03/31 13:13:22;;;;;;;29.00;15.90;;;;;;;;;;5129241;27;20969;-70
2021/03/31 13:16:01;;;;;;;36.15;14.23;;;;;;;;;;5125594;27;20034;-70
2021/03/31 13:34:09;;;;;;;25.58;9.23;;;;;;;;;;5121025;27;20046;-70
2021/03/31 13:37:27;;;;;;;37.00;9.38;;;;;;;;;;5121258;27;20055;-72
2021/03/31 13:39:27;;;;;;;36.67;12.45;;;;;;;;;;5109506;27;20026;-72
2021/03/31 13:41:54;;;;;;;28.75;9.30;;;;;;;;;;5136104;27;20511;-72
2021/03/31 13:44:20;;;;;;;31.45;11.00;;;;;;;;;;5133015;27;20031;-72
2021/03/31 13:46:50;;;;;;;51.83;10.75;;;;;;;;;;5131395;27;20106;-72
2021/03/31 13:49:28;;;;;;;23.27;9.50;;;;;;;;;;5129641;27;20055;-73
2021/03/31 13:52:02;;;;;;;33.42;9.20;;;;;;;;;;5135139;27;20090;-72
2021/03/31 13:54:33;;;;;;;31.65;10.48;;;;;;;;;;5129149;27;20046;-72
2021/03/31 13:57:00;;;;;;;35.50;9.85;;;;;;;;;;5121968;27;20043;-69
2021/03/31 13:59:29;;;;;;;31.83;11.38;;;;;;;;;;5129738;27;20514;-69
2021/03/31 14:01:56;;;;;;;24.13;9.02;;;;;;;;;;5123186;27;20055;-69
2021/03/31 14:04:22;;;;;;;24.25;9.68;;;;;;;;;;5122011;27;20019;-70
2021/03/31 14:06:49;;;;;;;39.10;11.43;;;;;;;;;;5123980;27;20035;-71
2021/03/31 14:09:15;;;;;;;28.45;9.05;;;;;;;;;;5119658;27;20035;-71
2021/03/31 14:11:45;;;;;;;31.75;10.70;;;;;;;;;;5122999;27;20019;-72
2021/03/31 14:14:13;;;;;;;21.08;8.10;;;;;;;;;;5123052;27;20027;-72
2021/03/31 14:16:42;;;;;;;25.90;10.05;;;;;;;;;;5123612;27;20133;-72
2021/03/31 14:19:08;;;;;;;24.05;9.60;;;;;;;;;;5119683;27;20040;-72
2021/03/31 14:21:34;;;;;;;33.08;10.93;;;;;;;;;;5124377;27;20076;-73
2021/03/31 14:24:00;;;;;;;33.50;10.18;;;;;;;;;;5120378;27;20070;-73
2021/03/31 14:26:27;;;;;;;26.27;7.60;;;;;;;;;;5121529;27;20035;-74
2021/03/31 14:28:53;;;;;;;30.20;9.90;;;;;;;;;;5105033;27;20471;-73
2021/03/31 14:31:19;;;;;;;28.00;8.98;;;;;;;;;;5119085;27;20027;-72
2021/03/31 14:33:45;;;;;;;32.67;9.80;;;;;;;;;;5124943;27;20126;-73
2021/03/31 14:36:12;;;;;;;26.08;9.25;;;;;;;;;;5122255;27;20031;-72
2021/03/31 14:38:38;;;;;;;29.15;10.25;;;;;;;;;;5120666;27;20086;-72
2021/03/31 14:41:04;;;;;;;28.15;9.00;;;;;;;;;;5124107;27;20054;-73
2021/03/31 14:43:31;;;;;;;31.20;10.45;;;;;;;;;;5123325;27;20079;-73
2021/03/31 14:45:57;;;;;;;27.92;8.55;;;;;;;;;;5122782;27;20522;-73
2021/03/31 14:48:23;;;;;;;32.60;8.45;;;;;;;;;;5120513;27;20126;-73
2021/03/31 14:50:50;;;;;;;32.22;8.45;;;;;;;;;;5119422;27;20027;-70
2021/03/31 15:01:31;;;;;;;32.30;10.05;;;;;;;;;;5121273;27;20042;-70
2021/03/31 15:03:57;;;;;;;19.98;7.97;;;;;;;;;;5121319;27;20126;-70
2021/03/31 15:06:25;;;;;;;29.48;10.90;;;;;;;;;;5121073;27;20034;-70
2021/03/31 15:08:51;;;;;;;23.15;8.05;;;;;;;;;;5118394;27;20497;-70
2021/03/31 15:11:17;;;;;;;24.85;9.00;;;;;;;;;;5121874;27;20029;-70
2021/03/31 15:13:43;;;;;;;28.48;10.38;;;;;;;;;;5117346;27;20379;-70
2021/03/31 15:16:10;;;;;;;26.98;9.25;;;;;;;;;;5118382;27;20512;-70
2021/03/31 15:18:36;;;;;;;19.10;5.97;;;;;;;;;;5129433;27;20038;-70
2021/03/31 15:21:10;;;;;;;24.65;8.13;;;;;;;;;;5129820;27;20023;-69
2021/03/31 15:26:05;;;;;;;18.02;7.35;;;;;;;;;;5128923;27;20024;-70
2021/03/31 15:28:34;;;;;;;20.75;7.10;;;;;;;;;;5126891;27;20034;-70
2021/03/31 15:31:00;;;;;;;24.30;8.90;;;;;;;;;;5126204;27;20033;-70
2021/03/31 15:33:26;;;;;;;19.77;6.72;;;;;;;;;;5127522;27;20485;-70